logo
Rechercher aéroport 
image banner adimage banner adimage banner ad
image banner ad

SJXI - Santa Rita Do Sapucai

Situé à Santa Rita Do Sapucai, Brazil

ICAO - SJXI, IATA -

Données fournies par Airmate  

Information générale

Coordonnées: S22°16'22" W45°38'24"
Élévation : 2893 feet MSL.
Variation magnétique : -22.248156467° East
Voir autres Aéroports à Ceará

Données opérationnelles

Special qualification required
Heure actuelle UTC:
Heure actuelle locale:
Météo à : SBGW - Campo Edu Chaves ( 73 km )
TAF: TAF SBGW 220300Z 2206/2218 04005KT 7000 BKN016 TN14/2206Z TX28/2218Z TEMPO 2206/2212 3500 BR BKN008 RMK PDZ
Voir NOTAMs / SUP AIP / TFR affectant cet aéroport [VIEW]
Fréquences de communication: [VIEW]

Pistes:

Identifiant RWYQFULongueur (ft)Largeur (ft)SurfaceLDA (ft)
163675262EARTH
343675262EARTH

Coordonnées de l'aéroport

Adresse: Santa Rita Do Sapucai Brazil

Vue satellite de SJXI